Time;durP1;ratioP1;P1;durP2;ratioP2;P2;SDS_P1;SDS_P2;PMS_P1;PMS_P2;Temp;Humidity;BMP_temperature;BMP_pressure;BME280_temperature;BME280_humidity;BME280_pressure;Samples;Min_cycle;Max_cycle;Signal;HPM_P1;HPM_P2
2022/01/19 00:00:33;;;;;;;16.35;8.45;;;;;;;;;;4949552;28;20054;-78
2022/01/19 00:03:00;;;;;;;14.63;7.65;;;;;;;;;;4935894;28;20049;-77
2022/01/19 00:05:28;;;;;;;14.40;7.47;;;;;;;;;;4948424;28;20608;-77
2022/01/19 00:07:55;;;;;;;13.80;7.32;;;;;;;;;;4929614;28;20030;-77
2022/01/19 00:10:27;;;;;;;13.60;7.40;;;;;;;;;;4933301;28;20030;-77
2022/01/19 00:12:57;;;;;;;15.30;7.72;;;;;;;;;;4949107;28;20093;-77
2022/01/19 00:15:24;;;;;;;15.20;7.88;;;;;;;;;;4950817;28;20110;-77
2022/01/19 00:17:59;;;;;;;12.23;6.97;;;;;;;;;;4947654;28;20540;-77
2022/01/19 00:20:30;;;;;;;12.88;7.22;;;;;;;;;;4945229;28;20627;-78
2022/01/19 00:22:59;;;;;;;13.77;7.53;;;;;;;;;;4928066;28;20053;-77
2022/01/19 00:25:25;;;;;;;13.07;7.50;;;;;;;;;;4949912;28;20516;-77
2022/01/19 00:27:52;;;;;;;13.77;7.65;;;;;;;;;;4950423;28;20113;-78
2022/01/19 00:30:18;;;;;;;13.23;7.57;;;;;;;;;;4952800;28;20039;-77
2022/01/19 00:32:45;;;;;;;12.90;7.57;;;;;;;;;;4929528;28;20190;-77
2022/01/19 00:35:13;;;;;;;14.85;7.55;;;;;;;;;;4920788;28;20493;-77
2022/01/19 00:37:40;;;;;;;14.07;7.00;;;;;;;;;;4912708;28;20796;-77
2022/01/19 00:40:09;;;;;;;13.68;7.05;;;;;;;;;;4931195;28;20062;-77
2022/01/19 00:42:36;;;;;;;12.73;6.45;;;;;;;;;;4945346;28;20031;-77
2022/01/19 00:45:07;;;;;;;13.52;6.50;;;;;;;;;;4929663;28;20923;-79
2022/01/19 00:47:53;;;;;;;12.48;7.07;;;;;;;;;;4952741;28;20501;-76
2022/01/19 00:50:22;;;;;;;11.93;6.38;;;;;;;;;;4949368;28;20508;-77
2022/01/19 00:52:51;;;;;;;11.73;6.40;;;;;;;;;;4943596;28;20045;-76
2022/01/19 00:55:18;;;;;;;11.98;6.00;;;;;;;;;;4943675;28;20106;-76
2022/01/19 00:57:46;;;;;;;11.70;6.05;;;;;;;;;;4942197;28;20118;-79
2022/01/19 01:00:14;;;;;;;11.40;6.22;;;;;;;;;;4948324;28;20041;-77
2022/01/19 01:02:40;;;;;;;11.48;5.90;;;;;;;;;;4947145;28;20382;-77
2022/01/19 01:05:08;;;;;;;11.50;6.05;;;;;;;;;;4961668;28;20045;-77
2022/01/19 01:07:38;;;;;;;12.77;6.10;;;;;;;;;;4946188;28;20034;-77
2022/01/19 01:10:08;;;;;;;12.02;5.85;;;;;;;;;;4955538;28;20050;-76
2022/01/19 01:12:49;;;;;;;13.13;6.85;;;;;;;;;;4931785;28;20039;-77
2022/01/19 01:15:47;;;;;;;14.57;7.10;;;;;;;;;;4924306;28;20382;-77
2022/01/19 01:18:20;;;;;;;12.32;6.43;;;;;;;;;;4925371;28;20164;-77
2022/01/19 01:20:51;;;;;;;12.52;6.25;;;;;;;;;;4919336;28;20055;-77
2022/01/19 01:23:18;;;;;;;11.68;6.05;;;;;;;;;;4923261;28;20034;-77
2022/01/19 01:25:46;;;;;;;12.23;6.18;;;;;;;;;;4920876;28;20723;-77
2022/01/19 01:28:14;;;;;;;12.50;6.35;;;;;;;;;;4925709;28;20030;-77
2022/01/19 01:30:41;;;;;;;13.00;6.93;;;;;;;;;;4922872;28;20486;-76
2022/01/19 01:33:10;;;;;;;11.52;6.22;;;;;;;;;;4924930;28;20039;-78
2022/01/19 01:35:36;;;;;;;12.43;6.00;;;;;;;;;;4923369;28;20023;-78
2022/01/19 01:38:03;;;;;;;12.68;5.57;;;;;;;;;;4922305;28;20532;-75
2022/01/19 01:40:33;;;;;;;11.48;5.55;;;;;;;;;;4926016;28;20023;-78
2022/01/19 01:43:00;;;;;;;10.68;5.15;;;;;;;;;;4921737;28;20042;-78
2022/01/19 01:45:32;;;;;;;11.52;6.03;;;;;;;;;;4921469;28;20069;-75
2022/01/19 01:48:08;;;;;;;11.57;5.55;;;;;;;;;;4909095;28;20050;-76
2022/01/19 01:53:26;;;;;;;12.30;5.47;;;;;;;;;;4942669;28;20178;-76
2022/01/19 01:55:57;;;;;;;9.75;4.78;;;;;;;;;;4962718;28;20019;-76
2022/01/19 01:58:26;;;;;;;9.70;4.57;;;;;;;;;;4948759;28;20165;-76
2022/01/19 02:00:53;;;;;;;10.02;4.82;;;;;;;;;;4942107;28;20035;-77
2022/01/19 02:03:22;;;;;;;11.15;5.00;;;;;;;;;;4950840;28;20046;-77
2022/01/19 02:08:40;;;;;;;10.38;4.80;;;;;;;;;;4939470;28;20039;-77
2022/01/19 02:15:45;;;;;;;10.50;4.60;;;;;;;;;;4946305;28;20038;-77
2022/01/19 02:22:51;;;;;;;9.73;4.43;;;;;;;;;;4949663;28;20105;-77
2022/01/19 02:25:26;;;;;;;10.00;4.22;;;;;;;;;;4950941;28;20598;-77
2022/01/19 02:36:36;;;;;;;8.75;3.58;;;;;;;;;;4948480;28;20120;-77
2022/01/19 02:41:48;;;;;;;8.82;4.03;;;;;;;;;;4942964;28;20042;-76
2022/01/19 02:44:30;;;;;;;8.90;3.88;;;;;;;;;;4945181;28;20035;-77
2022/01/19 02:49:55;;;;;;;8.73;3.70;;;;;;;;;;4945203;28;20178;-77
2022/01/19 02:52:24;;;;;;;8.63;3.75;;;;;;;;;;4950725;28;20034;-78
2022/01/19 02:54:53;;;;;;;9.73;4.15;;;;;;;;;;4932105;28;20489;-78
2022/01/19 02:57:25;;;;;;;8.02;3.75;;;;;;;;;;4937250;28;20034;-78
2022/01/19 03:10:39;;;;;;;10.25;3.88;;;;;;;;;;4947933;28;20041;-77
2022/01/19 03:13:06;;;;;;;10.25;4.05;;;;;;;;;;4951121;28;20085;-77
2022/01/19 03:15:32;;;;;;;8.88;3.85;;;;;;;;;;4948824;28;20153;-77
2022/01/19 03:18:00;;;;;;;9.38;3.90;;;;;;;;;;4932550;28;20074;-77
2022/01/19 03:20:29;;;;;;;8.73;3.85;;;;;;;;;;4951011;28;20793;-77
2022/01/19 03:23:11;;;;;;;8.95;3.40;;;;;;;;;;4944131;28;20113;-77
2022/01/19 03:25:53;;;;;;;9.80;3.70;;;;;;;;;;4930554;28;20047;-77
2022/01/19 03:28:20;;;;;;;8.30;3.70;;;;;;;;;;4930699;28;20039;-77
2022/01/19 03:30:49;;;;;;;8.57;3.15;;;;;;;;;;4921982;28;20082;-77
2022/01/19 03:33:17;;;;;;;9.00;3.67;;;;;;;;;;4914395;28;20130;-77
2022/01/19 03:35:43;;;;;;;9.60;4.10;;;;;;;;;;4924609;28;20042;-78
2022/01/19 03:38:12;;;;;;;8.38;3.65;;;;;;;;;;4911193;28;20071;-77
2022/01/19 03:40:40;;;;;;;9.10;3.72;;;;;;;;;;4916145;28;20039;-77
2022/01/19 03:43:06;;;;;;;11.50;3.90;;;;;;;;;;4928867;28;20035;-77
2022/01/19 03:45:35;;;;;;;10.38;4.20;;;;;;;;;;4931588;28;20043;-77
2022/01/19 03:48:32;;;;;;;9.75;3.75;;;;;;;;;;4931137;28;20042;-77
2022/01/19 03:50:58;;;;;;;10.30;4.55;;;;;;;;;;4924779;28;20153;-77
2022/01/19 03:53:26;;;;;;;11.15;4.18;;;;;;;;;;4930794;28;20145;-77
2022/01/19 03:55:53;;;;;;;8.95;3.70;;;;;;;;;;4929688;28;20039;-77
2022/01/19 03:58:19;;;;;;;8.98;3.85;;;;;;;;;;4915652;28;20043;-77
2022/01/19 04:00:46;;;;;;;;;;;;;;;;;;4925622;28;20481;-77
2022/01/19 04:03:18;;;;;;;9.18;4.18;;;;;;;;;;4931059;28;19997;-77
2022/01/19 04:08:15;;;;;;;8.98;3.83;;;;;;;;;;4929261;28;20031;-76
2022/01/19 04:10:42;;;;;;;9.90;3.95;;;;;;;;;;4938085;28;20043;-77
2022/01/19 04:13:43;;;;;;;10.65;4.20;;;;;;;;;;4942159;28;20122;-76
2022/01/19 04:16:13;;;;;;;9.40;3.75;;;;;;;;;;4946431;28;20054;-76
2022/01/19 04:18:39;;;;;;;9.55;4.18;;;;;;;;;;4941308;28;20027;-76
2022/01/19 04:21:07;;;;;;;;;;;;;;;;;;4956948;28;20520;-76
2022/01/19 04:23:33;;;;;;;;;;;;;;;;;;4942090;28;20570;-76
2022/01/19 04:25:59;;;;;;;10.68;3.95;;;;;;;;;;4943225;28;19914;-77
2022/01/19 04:28:28;;;;;;;9.25;4.13;;;;;;;;;;4946766;28;20516;-77
2022/01/19 04:30:55;;;;;;;9.32;3.92;;;;;;;;;;4944203;28;20550;-77
2022/01/19 04:33:26;;;;;;;8.35;3.42;;;;;;;;;;4944700;28;20027;-77
2022/01/19 04:36:06;;;;;;;9.27;4.07;;;;;;;;;;4940443;28;20127;-76
2022/01/19 04:39:17;;;;;;;12.57;3.92;;;;;;;;;;4950134;28;20201;-76
2022/01/19 05:04:05;;;;;;;9.60;3.80;;;;;;;;;;4928543;28;20040;-76
2022/01/19 05:06:37;;;;;;;8.38;3.83;;;;;;;;;;4933202;28;20024;-76
2022/01/19 05:09:21;;;;;;;9.13;4.00;;;;;;;;;;4917365;28;20059;-77
2022/01/19 05:14:34;;;;;;;9.48;4.25;;;;;;;;;;4931337;28;20029;-76
2022/01/19 05:17:01;;;;;;;8.77;4.25;;;;;;;;;;4932641;28;20974;-76
2022/01/19 05:19:28;;;;;;;9.57;4.10;;;;;;;;;;4931801;28;20300;-76
2022/01/19 05:21:55;;;;;;;9.68;3.63;;;;;;;;;;4914329;28;20043;-76
2022/01/19 05:24:22;;;;;;;8.15;3.65;;;;;;;;;;4916611;29;20723;-76
2022/01/19 05:26:51;;;;;;;8.05;3.42;;;;;;;;;;4911881;28;20854;-75
2022/01/19 05:29:20;;;;;;;8.50;3.60;;;;;;;;;;4936055;28;20063;-76
2022/01/19 05:31:48;;;;;;;8.93;3.65;;;;;;;;;;4931314;28;20031;-76
2022/01/19 05:34:14;;;;;;;8.57;3.40;;;;;;;;;;4910708;29;20210;-76
2022/01/19 05:36:41;;;;;;;9.73;3.53;;;;;;;;;;4913475;29;20028;-76
2022/01/19 05:39:07;;;;;;;8.63;3.60;;;;;;;;;;4896970;29;20047;-76
2022/01/19 05:41:33;;;;;;;;;;;;;;;;;;4941029;28;20046;-78
2022/01/19 05:44:01;;;;;;;8.73;3.53;;;;;;;;;;4946748;28;19914;-78
2022/01/19 05:46:28;;;;;;;9.40;3.53;;;;;;;;;;4946957;28;20031;-76
2022/01/19 05:48:56;;;;;;;9.00;3.50;;;;;;;;;;4947872;28;20062;-77
2022/01/19 05:51:33;;;;;;;8.57;3.55;;;;;;;;;;4952181;28;20045;-78
2022/01/19 05:54:00;;;;;;;8.65;3.85;;;;;;;;;;4945967;28;20042;-76
2022/01/19 05:56:27;;;;;;;9.45;4.25;;;;;;;;;;4944768;28;20117;-76
2022/01/19 05:58:53;;;;;;;11.27;5.13;;;;;;;;;;4941735;28;20405;-77
2022/01/19 06:01:19;;;;;;;14.23;5.15;;;;;;;;;;4947325;28;20119;-78
2022/01/19 06:03:46;;;;;;;11.20;5.32;;;;;;;;;;4948716;28;20058;-77
2022/01/19 06:06:12;;;;;;;10.43;5.53;;;;;;;;;;4951263;28;20073;-77
2022/01/19 06:08:44;;;;;;;10.40;5.22;;;;;;;;;;4949339;28;20602;-77
2022/01/19 06:11:11;;;;;;;11.10;5.18;;;;;;;;;;4946732;28;20393;-77
2022/01/19 06:13:39;;;;;;;13.50;5.18;;;;;;;;;;4948183;28;20389;-76
2022/01/19 06:16:07;;;;;;;12.10;6.00;;;;;;;;;;4947042;28;20023;-77
2022/01/19 06:18:34;;;;;;;11.20;5.43;;;;;;;;;;4948473;28;20053;-78
2022/01/19 06:21:03;;;;;;;13.05;5.43;;;;;;;;;;4943727;28;20057;-78
2022/01/19 06:23:29;;;;;;;10.52;5.13;;;;;;;;;;4937861;28;20061;-77
2022/01/19 06:25:57;;;;;;;12.50;5.07;;;;;;;;;;4948423;28;20437;-78
2022/01/19 06:28:24;;;;;;;10.23;4.25;;;;;;;;;;4945125;28;20027;-75
2022/01/19 06:30:52;;;;;;;12.88;4.55;;;;;;;;;;4937901;28;20104;-76
2022/01/19 06:33:19;;;;;;;9.98;4.50;;;;;;;;;;4948332;28;20022;-76
2022/01/19 06:35:48;;;;;;;10.70;4.18;;;;;;;;;;4945625;28;20811;-77
2022/01/19 06:38:16;;;;;;;9.95;4.07;;;;;;;;;;4941939;28;20915;-78
2022/01/19 06:40:47;;;;;;;10.00;4.20;;;;;;;;;;4944156;28;20062;-75
2022/01/19 06:43:16;;;;;;;9.95;4.25;;;;;;;;;;4947673;28;20037;-77
2022/01/19 06:45:43;;;;;;;10.43;4.20;;;;;;;;;;4943153;28;20588;-77
2022/01/19 06:48:10;;;;;;;9.88;4.05;;;;;;;;;;4945148;28;20221;-78
2022/01/19 06:50:38;;;;;;;10.77;4.25;;;;;;;;;;4950277;28;20081;-76
2022/01/19 06:53:04;;;;;;;10.50;4.13;;;;;;;;;;4939470;28;20050;-75
2022/01/19 06:58:49;;;;;;;10.27;4.38;;;;;;;;;;4947817;28;20033;-76
2022/01/19 07:01:15;;;;;;;10.48;4.32;;;;;;;;;;4948671;28;20030;-77
2022/01/19 07:03:43;;;;;;;11.20;4.43;;;;;;;;;;4945883;28;20501;-77
2022/01/19 07:06:11;;;;;;;10.27;4.32;;;;;;;;;;4949399;28;20031;-77
2022/01/19 07:08:39;;;;;;;11.07;4.70;;;;;;;;;;4947561;28;20131;-77
2022/01/19 07:11:07;;;;;;;10.00;4.47;;;;;;;;;;4949412;28;20078;-77
2022/01/19 07:13:34;;;;;;;9.70;4.43;;;;;;;;;;4948472;28;20030;-76
2022/01/19 07:16:03;;;;;;;10.82;4.75;;;;;;;;;;4939346;28;22983;-77
2022/01/19 07:18:31;;;;;;;10.02;4.47;;;;;;;;;;4949874;28;20022;-74
2022/01/19 07:20:57;;;;;;;9.57;4.15;;;;;;;;;;4928601;28;20159;-74
2022/01/19 07:23:24;;;;;;;11.40;4.30;;;;;;;;;;4940744;28;20253;-78
2022/01/19 07:25:51;;;;;;;9.10;4.50;;;;;;;;;;4945617;28;20034;-78
2022/01/19 07:28:18;;;;;;;10.48;4.40;;;;;;;;;;4941860;28;20414;-78
2022/01/19 07:30:46;;;;;;;10.18;4.03;;;;;;;;;;4939465;28;20050;-76
2022/01/19 07:33:14;;;;;;;9.35;4.18;;;;;;;;;;4946012;28;20022;-76
2022/01/19 07:35:41;;;;;;;9.02;3.85;;;;;;;;;;4944845;28;20864;-76
2022/01/19 07:38:07;;;;;;;;;;;;;;;;;;4954769;28;20031;-76
2022/01/19 07:40:37;;;;;;;12.07;4.40;;;;;;;;;;4950441;28;19910;-76
2022/01/19 07:43:06;;;;;;;12.02;4.57;;;;;;;;;;4946900;28;20045;-76
2022/01/19 07:45:32;;;;;;;11.80;4.85;;;;;;;;;;4948118;28;20034;-76
2022/01/19 07:47:59;;;;;;;11.02;4.35;;;;;;;;;;4947606;28;20038;-77
2022/01/19 07:50:27;;;;;;;9.27;3.88;;;;;;;;;;4949907;28;20085;-76
2022/01/19 07:52:54;;;;;;;9.25;3.75;;;;;;;;;;4924160;28;20047;-78
2022/01/19 07:55:24;;;;;;;10.98;4.25;;;;;;;;;;4947309;28;20073;-78
2022/01/19 07:57:51;;;;;;;9.60;3.80;;;;;;;;;;4943608;28;20086;-77
2022/01/19 08:00:18;;;;;;;9.65;4.30;;;;;;;;;;4946407;28;20121;-77
2022/01/19 08:02:49;;;;;;;9.68;3.83;;;;;;;;;;4944791;28;20587;-77
2022/01/19 08:05:16;;;;;;;10.50;3.97;;;;;;;;;;4943372;28;20046;-78
2022/01/19 08:07:43;;;;;;;11.15;3.90;;;;;;;;;;4937273;28;20061;-77
2022/01/19 08:10:11;;;;;;;9.45;3.55;;;;;;;;;;4948727;28;20051;-78
2022/01/19 08:12:38;;;;;;;9.90;3.70;;;;;;;;;;4945604;28;21371;-78
2022/01/19 08:15:05;;;;;;;11.13;4.05;;;;;;;;;;4943853;28;20035;-77
2022/01/19 08:17:32;;;;;;;11.00;4.28;;;;;;;;;;4949419;28;20058;-78
2022/01/19 08:19:58;;;;;;;;;;;;;;;;;;4952404;28;20065;-78
2022/01/19 08:22:25;;;;;;;11.13;4.38;;;;;;;;;;4948919;28;19925;-78
2022/01/19 08:24:53;;;;;;;11.10;4.40;;;;;;;;;;4949174;28;20039;-78
2022/01/19 08:27:20;;;;;;;9.68;4.00;;;;;;;;;;4949911;28;20422;-78
2022/01/19 08:29:49;;;;;;;11.52;5.18;;;;;;;;;;4949340;28;20039;-78
2022/01/19 08:32:15;;;;;;;10.57;4.90;;;;;;;;;;4931798;28;20146;-78
2022/01/19 08:34:41;;;;;;;11.07;5.20;;;;;;;;;;4939908;28;20027;-77
2022/01/19 08:37:14;;;;;;;9.82;4.47;;;;;;;;;;4952628;28;20054;-77
2022/01/19 08:39:45;;;;;;;12.52;4.93;;;;;;;;;;4948604;28;20034;-78
2022/01/19 08:42:11;;;;;;;11.50;4.97;;;;;;;;;;4949760;28;20047;-78
2022/01/19 08:44:40;;;;;;;13.02;5.55;;;;;;;;;;4953318;28;20039;-78
2022/01/19 08:47:08;;;;;;;11.95;5.65;;;;;;;;;;4948390;28;20023;-78
2022/01/19 08:49:37;;;;;;;13.73;6.25;;;;;;;;;;4951244;28;20039;-77
2022/01/19 08:52:06;;;;;;;14.82;7.38;;;;;;;;;;4947524;28;20062;-78
2022/01/19 08:54:35;;;;;;;11.90;5.82;;;;;;;;;;4953325;28;20040;-78
2022/01/19 08:57:02;;;;;;;11.10;5.32;;;;;;;;;;4947414;28;22186;-78
2022/01/19 08:59:29;;;;;;;12.02;5.90;;;;;;;;;;4944369;28;20023;-78
2022/01/19 09:01:57;;;;;;;13.32;6.65;;;;;;;;;;4944680;28;20027;-76
2022/01/19 09:04:25;;;;;;;11.55;5.97;;;;;;;;;;4950669;28;20035;-76
2022/01/19 09:06:54;;;;;;;11.40;6.00;;;;;;;;;;4941382;28;20046;-76
2022/01/19 09:09:20;;;;;;;10.43;4.70;;;;;;;;;;4951142;28;20437;-76
2022/01/19 09:11:50;;;;;;;11.20;5.10;;;;;;;;;;4944510;28;20019;-76
2022/01/19 09:14:16;;;;;;;9.35;4.35;;;;;;;;;;4951352;28;20039;-77
2022/01/19 09:16:45;;;;;;;10.10;4.72;;;;;;;;;;4948069;28;20047;-76
2022/01/19 09:19:12;;;;;;;8.98;4.38;;;;;;;;;;4950753;28;20031;-77
2022/01/19 09:21:38;;;;;;;9.82;4.57;;;;;;;;;;4951463;28;20445;-79
2022/01/19 09:24:07;;;;;;;10.35;5.20;;;;;;;;;;4953139;28;20045;-80
2022/01/19 09:26:34;;;;;;;12.18;5.30;;;;;;;;;;4947753;28;20039;-79
2022/01/19 09:32:18;;;;;;;9.82;4.45;;;;;;;;;;4950564;28;20045;-79
2022/01/19 09:34:55;;;;;;;9.93;5.07;;;;;;;;;;4949903;28;20102;-80
2022/01/19 09:37:22;;;;;;;10.02;4.32;;;;;;;;;;4952273;28;20018;-79
2022/01/19 09:39:52;;;;;;;9.32;4.15;;;;;;;;;;4947227;28;20121;-79
2022/01/19 09:42:19;;;;;;;12.10;5.38;;;;;;;;;;4932152;28;20093;-79
2022/01/19 09:44:47;;;;;;;10.60;4.63;;;;;;;;;;4942081;28;20034;-79
2022/01/19 09:47:14;;;;;;;8.88;4.32;;;;;;;;;;4948419;28;20059;-80
2022/01/19 09:49:42;;;;;;;11.48;5.05;;;;;;;;;;4942240;28;20051;-79
2022/01/19 09:52:09;;;;;;;9.57;4.60;;;;;;;;;;4944263;28;20035;-79
2022/01/19 09:54:37;;;;;;;9.52;4.50;;;;;;;;;;4943029;28;20031;-79
2022/01/19 09:57:06;;;;;;;11.05;4.60;;;;;;;;;;4941576;28;20035;-79
2022/01/19 09:59:32;;;;;;;10.00;4.65;;;;;;;;;;4949183;28;20027;-79
2022/01/19 10:02:05;;;;;;;11.05;5.05;;;;;;;;;;4944256;28;20149;-79
2022/01/19 10:04:34;;;;;;;9.88;5.25;;;;;;;;;;4946222;28;20069;-79
2022/01/19 10:07:11;;;;;;;10.98;5.30;;;;;;;;;;4947437;28;20399;-79
2022/01/19 10:09:49;;;;;;;12.48;6.13;;;;;;;;;;4947357;28;20039;-81
2022/01/19 10:18:17;;;;;;;12.60;5.85;;;;;;;;;;4948390;28;20061;-79
2022/01/19 10:20:44;;;;;;;14.07;7.40;;;;;;;;;;4945620;28;20035;-78
2022/01/19 10:23:33;;;;;;;13.98;7.65;;;;;;;;;;4964249;28;20074;-79
2022/01/19 10:26:00;;;;;;;12.75;6.28;;;;;;;;;;4944656;28;20027;-79
2022/01/19 10:28:28;;;;;;;11.40;5.80;;;;;;;;;;4947359;28;21374;-79
2022/01/19 10:30:55;;;;;;;12.15;5.53;;;;;;;;;;4961999;28;20034;-79
2022/01/19 10:33:21;;;;;;;11.60;5.80;;;;;;;;;;4944008;28;20037;-79
2022/01/19 10:35:49;;;;;;;10.65;5.45;;;;;;;;;;4939209;28;20054;-79
2022/01/19 10:38:27;;;;;;;9.90;4.90;;;;;;;;;;4945838;28;20034;-79
2022/01/19 10:41:01;;;;;;;8.85;4.10;;;;;;;;;;4943564;28;20026;-79
2022/01/19 10:43:51;;;;;;;8.77;3.97;;;;;;;;;;4947721;28;20063;-79
2022/01/19 10:46:36;;;;;;;8.15;3.78;;;;;;;;;;4949366;28;20544;-79
2022/01/19 10:49:08;;;;;;;9.32;4.47;;;;;;;;;;4946522;28;20047;-79
2022/01/19 10:51:44;;;;;;;9.23;4.25;;;;;;;;;;4942564;28;20035;-80
2022/01/19 10:54:12;;;;;;;9.95;3.83;;;;;;;;;;4945735;28;20589;-79
2022/01/19 10:56:42;;;;;;;7.63;3.45;;;;;;;;;;4946470;28;20071;-79
2022/01/19 10:59:12;;;;;;;8.43;2.60;;;;;;;;;;4941464;28;20241;-80
2022/01/19 11:01:48;;;;;;;8.00;3.10;;;;;;;;;;4948982;28;20193;-79
2022/01/19 11:04:29;;;;;;;7.75;3.35;;;;;;;;;;4948248;28;20030;-80
2022/01/19 11:07:13;;;;;;;6.72;2.60;;;;;;;;;;4947817;28;20038;-79
2022/01/19 11:10:21;;;;;;;7.05;2.60;;;;;;;;;;4945295;28;20027;-80
2022/01/19 11:12:45;;;;;;;6.68;2.60;;;;;;;;;;4945035;28;20074;-79
2022/01/19 11:15:13;;;;;;;7.03;2.60;;;;;;;;;;4946510;28;20093;-79
2022/01/19 11:17:40;;;;;;;6.88;2.67;;;;;;;;;;4941836;28;20038;-79
2022/01/19 11:20:08;;;;;;;5.38;2.10;;;;;;;;;;4945218;28;20071;-79
2022/01/19 11:22:54;;;;;;;6.82;2.40;;;;;;;;;;4941158;28;20449;-79
2022/01/19 11:25:39;;;;;;;6.50;2.50;;;;;;;;;;4946246;28;20039;-79
2022/01/19 11:28:07;;;;;;;6.95;2.67;;;;;;;;;;4949912;28;20058;-79
2022/01/19 11:30:34;;;;;;;5.75;2.03;;;;;;;;;;4938964;28;20040;-79
2022/01/19 11:33:24;;;;;;;6.40;2.17;;;;;;;;;;4941392;28;20027;-79
2022/01/19 11:36:18;;;;;;;7.07;2.70;;;;;;;;;;4942883;28;20413;-79
2022/01/19 11:38:50;;;;;;;11.60;7.32;;;;;;;;;;4946486;28;20019;-79
2022/01/19 11:41:18;;;;;;;8.02;4.00;;;;;;;;;;4950073;28;20129;-79
2022/01/19 11:44:01;;;;;;;5.93;2.40;;;;;;;;;;4945272;28;20031;-78
2022/01/19 11:46:40;;;;;;;9.00;3.47;;;;;;;;;;4947640;28;20204;-80
2022/01/19 11:49:07;;;;;;;6.45;2.13;;;;;;;;;;4965106;28;20085;-79
2022/01/19 11:51:44;;;;;;;8.90;2.53;;;;;;;;;;4948303;28;20489;-79
2022/01/19 11:54:14;;;;;;;9.40;4.38;;;;;;;;;;4946938;28;20049;-79
2022/01/19 11:56:58;;;;;;;7.13;2.83;;;;;;;;;;4950711;28;20473;-80
2022/01/19 11:59:36;;;;;;;7.60;3.00;;;;;;;;;;4949213;28;20022;-79
2022/01/19 12:02:26;;;;;;;7.75;3.17;;;;;;;;;;4943241;28;20514;-79
2022/01/19 12:04:59;;;;;;;6.65;2.65;;;;;;;;;;4949173;28;20035;-80
2022/01/19 12:07:42;;;;;;;7.05;2.47;;;;;;;;;;4954248;28;20069;-79
2022/01/19 12:10:39;;;;;;;6.32;2.20;;;;;;;;;;4953763;28;20054;-79
2022/01/19 12:16:50;;;;;;;6.95;2.40;;;;;;;;;;4949194;28;20030;-79
2022/01/19 12:19:20;;;;;;;6.60;2.25;;;;;;;;;;5307174;23;20300;-80
2022/01/19 12:21:48;;;;;;;5.43;1.92;;;;;;;;;;5007531;28;20025;-81
2022/01/19 12:27:28;;;;;;;8.50;2.60;;;;;;;;;;5012283;28;20631;-81
2022/01/19 12:30:10;;;;;;;6.57;2.20;;;;;;;;;;5002739;28;20036;-81
2022/01/19 12:32:49;;;;;;;7.75;2.92;;;;;;;;;;5009017;28;20041;-80
2022/01/19 12:35:19;;;;;;;7.35;2.80;;;;;;;;;;5006165;28;20518;-80
2022/01/19 12:37:45;;;;;;;6.75;2.40;;;;;;;;;;5005578;28;20029;-80
2022/01/19 12:40:17;;;;;;;6.45;2.50;;;;;;;;;;5006799;28;20141;-80
2022/01/19 12:42:48;;;;;;;10.02;5.82;;;;;;;;;;5004466;28;20133;-81
2022/01/19 12:45:16;;;;;;;6.65;2.72;;;;;;;;;;5007658;28;20491;-80
2022/01/19 12:47:42;;;;;;;9.00;3.70;;;;;;;;;;5004829;28;20056;-80
2022/01/19 12:50:08;;;;;;;9.63;5.05;;;;;;;;;;5004394;28;20038;-80
2022/01/19 12:52:35;;;;;;;9.00;4.07;;;;;;;;;;5005974;28;20079;-79
2022/01/19 12:55:16;;;;;;;6.28;2.47;;;;;;;;;;5005001;28;21391;-77
2022/01/19 12:57:42;;;;;;;6.72;2.70;;;;;;;;;;5004889;28;20032;-78
2022/01/19 13:00:10;;;;;;;6.00;2.20;;;;;;;;;;5002998;28;20037;-79
2022/01/19 13:02:36;;;;;;;5.63;1.80;;;;;;;;;;5007033;28;20018;-79
2022/01/19 13:05:06;;;;;;;6.72;2.28;;;;;;;;;;5006841;28;20660;-79
2022/01/19 13:07:34;;;;;;;6.57;2.40;;;;;;;;;;5006291;28;20652;-78
2022/01/19 13:10:19;;;;;;;5.70;2.13;;;;;;;;;;5007848;28;20042;-78
2022/01/19 13:12:57;;;;;;;5.38;2.10;;;;;;;;;;5004503;28;20025;-79
2022/01/19 13:15:24;;;;;;;6.28;2.30;;;;;;;;;;5007218;28;20036;-78
2022/01/19 13:17:51;;;;;;;7.57;2.55;;;;;;;;;;5006420;28;20032;-81
2022/01/19 13:20:22;;;;;;;7.63;2.80;;;;;;;;;;4989888;28;20046;-79
2022/01/19 13:22:48;;;;;;;6.78;2.60;;;;;;;;;;4980041;28;20030;-82
2022/01/19 13:25:19;;;;;;;7.65;3.03;;;;;;;;;;4983173;28;20030;-81
2022/01/19 13:31:14;;;;;;;4.72;2.00;;;;;;;;;;4983639;28;20818;-81
2022/01/19 13:33:41;;;;;;;7.78;3.25;;;;;;;;;;4980772;28;20026;-80
2022/01/19 13:36:07;;;;;;;8.38;3.95;;;;;;;;;;4979847;28;20116;-80
2022/01/19 13:38:34;;;;;;;7.38;2.92;;;;;;;;;;4985430;28;20841;-80
2022/01/19 13:41:05;;;;;;;6.07;2.60;;;;;;;;;;4979949;28;20181;-80
2022/01/19 13:43:32;;;;;;;8.05;3.35;;;;;;;;;;4979927;28;20109;-79
2022/01/19 13:46:12;;;;;;;8.13;3.00;;;;;;;;;;4980652;28;20026;-80
2022/01/19 13:48:39;;;;;;;6.57;2.55;;;;;;;;;;4983541;28;20112;-80
2022/01/19 13:51:09;;;;;;;9.07;4.68;;;;;;;;;;4977932;28;20038;-79
2022/01/19 13:53:40;;;;;;;8.48;3.85;;;;;;;;;;4982900;28;20183;-80
2022/01/19 13:56:10;;;;;;;7.25;2.40;;;;;;;;;;4982799;28;20018;-80
2022/01/19 13:58:48;;;;;;;7.03;2.70;;;;;;;;;;4982596;28;20045;-79
2022/01/19 14:01:19;;;;;;;7.65;3.40;;;;;;;;;;4986905;28;20061;-80
2022/01/19 14:03:58;;;;;;;7.97;2.65;;;;;;;;;;4981051;28;20061;-80
2022/01/19 14:06:35;;;;;;;4.97;1.80;;;;;;;;;;4986801;28;20069;-79
2022/01/19 14:09:10;;;;;;;4.97;1.60;;;;;;;;;;4982365;28;20830;-80
2022/01/19 14:11:37;;;;;;;5.38;1.80;;;;;;;;;;4982413;28;20639;-81
2022/01/19 14:14:05;;;;;;;5.90;1.98;;;;;;;;;;4981187;28;20041;-79
2022/01/19 14:16:37;;;;;;;5.72;1.85;;;;;;;;;;4985627;28;20072;-79
2022/01/19 14:19:22;;;;;;;6.88;1.60;;;;;;;;;;4976076;28;20746;-79
2022/01/19 14:22:01;;;;;;;3.95;1.60;;;;;;;;;;4978507;28;20612;-79
2022/01/19 14:24:30;;;;;;;5.47;2.10;;;;;;;;;;4980928;28;20138;-79
2022/01/19 14:26:58;;;;;;;5.05;1.88;;;;;;;;;;4976079;28;20038;-79
2022/01/19 14:29:25;;;;;;;5.38;1.90;;;;;;;;;;4978776;28;20130;-79
2022/01/19 14:31:59;;;;;;;6.82;2.78;;;;;;;;;;4977802;28;20065;-80
2022/01/19 14:34:34;;;;;;;5.53;2.00;;;;;;;;;;4980812;28;20041;-81
2022/01/19 14:37:13;;;;;;;7.63;2.00;;;;;;;;;;4979397;28;20030;-79
2022/01/19 14:39:49;;;;;;;6.60;2.10;;;;;;;;;;4982442;28;20021;-80
2022/01/19 14:42:18;;;;;;;5.90;2.13;;;;;;;;;;4984121;28;20118;-79
2022/01/19 14:44:57;;;;;;;5.45;1.85;;;;;;;;;;4982453;28;20026;-79
2022/01/19 14:47:37;;;;;;;5.45;1.67;;;;;;;;;;4980039;28;20575;-80
2022/01/19 14:50:19;;;;;;;3.70;1.40;;;;;;;;;;4979166;28;20555;-80
2022/01/19 14:52:45;;;;;;;5.90;1.77;;;;;;;;;;4983987;28;20030;-80
2022/01/19 14:55:11;;;;;;;5.57;2.17;;;;;;;;;;4983650;28;20029;-80
2022/01/19 14:57:38;;;;;;;6.50;2.42;;;;;;;;;;4983428;28;20022;-80
2022/01/19 15:00:06;;;;;;;5.13;1.67;;;;;;;;;;4985079;28;20034;-80
2022/01/19 15:02:32;;;;;;;7.50;2.58;;;;;;;;;;4985111;28;20045;-80
2022/01/19 15:04:58;;;;;;;7.28;2.67;;;;;;;;;;4979224;28;20162;-80
2022/01/19 15:07:24;;;;;;;6.50;2.53;;;;;;;;;;4978558;28;20038;-79
2022/01/19 15:09:50;;;;;;;5.80;2.40;;;;;;;;;;4987183;28;20022;-80
2022/01/19 15:12:17;;;;;;;5.93;2.08;;;;;;;;;;4986131;28;20021;-80
2022/01/19 15:14:45;;;;;;;7.65;2.78;;;;;;;;;;4982715;28;20606;-78
2022/01/19 15:17:11;;;;;;;6.03;2.00;;;;;;;;;;4985175;28;20945;-79
2022/01/19 15:19:38;;;;;;;6.30;2.38;;;;;;;;;;4984309;28;20046;-80
2022/01/19 15:22:05;;;;;;;5.13;2.08;;;;;;;;;;4979216;28;20056;-80
2022/01/19 15:24:31;;;;;;;5.88;2.00;;;;;;;;;;4982371;28;20030;-80
2022/01/19 15:26:57;;;;;;;9.82;4.80;;;;;;;;;;4975635;28;20034;-80
2022/01/19 15:29:24;;;;;;;11.27;6.75;;;;;;;;;;4980404;28;20056;-80
2022/01/19 15:31:50;;;;;;;6.80;2.80;;;;;;;;;;4979755;28;20030;-80
2022/01/19 15:34:20;;;;;;;9.70;4.38;;;;;;;;;;4980414;28;20030;-79
2022/01/19 15:36:46;;;;;;;11.13;5.97;;;;;;;;;;4982865;28;20032;-79
2022/01/19 15:39:12;;;;;;;9.95;4.80;;;;;;;;;;4986984;28;20026;-79
2022/01/19 15:41:39;;;;;;;9.20;4.03;;;;;;;;;;4979877;28;20026;-80
2022/01/19 15:44:06;;;;;;;9.15;4.40;;;;;;;;;;4979536;28;20026;-80
2022/01/19 15:46:32;;;;;;;8.60;3.88;;;;;;;;;;4983346;28;20040;-80
2022/01/19 15:48:58;;;;;;;8.60;3.83;;;;;;;;;;4975709;28;20073;-80
2022/01/19 15:51:24;;;;;;;8.13;3.75;;;;;;;;;;4982404;28;20029;-79
2022/01/19 15:53:54;;;;;;;8.55;3.90;;;;;;;;;;4979389;28;20088;-79
2022/01/19 15:56:21;;;;;;;8.30;3.60;;;;;;;;;;4978872;28;20027;-79
2022/01/19 15:58:48;;;;;;;8.63;3.78;;;;;;;;;;4981850;28;20146;-79
2022/01/19 16:01:14;;;;;;;9.10;3.63;;;;;;;;;;4977688;28;20137;-79
2022/01/19 16:03:40;;;;;;;8.57;3.90;;;;;;;;;;4979847;28;20050;-79
2022/01/19 16:06:06;;;;;;;7.72;3.22;;;;;;;;;;4976907;28;21279;-78
2022/01/19 16:08:33;;;;;;;7.47;3.15;;;;;;;;;;4980876;28;20061;-79
2022/01/19 16:10:59;;;;;;;8.05;3.47;;;;;;;;;;4981053;28;20030;-80
2022/01/19 16:13:25;;;;;;;8.80;3.45;;;;;;;;;;4983253;28;20022;-80
2022/01/19 16:15:51;;;;;;;8.18;3.40;;;;;;;;;;4979192;28;20025;-80
2022/01/19 16:18:19;;;;;;;9.27;4.90;;;;;;;;;;4982972;28;20030;-80
2022/01/19 16:20:47;;;;;;;8.70;4.07;;;;;;;;;;4975832;28;20073;-80
2022/01/19 16:26:12;;;;;;;9.48;4.30;;;;;;;;;;4976443;28;20041;-80
2022/01/19 16:28:40;;;;;;;10.55;5.72;;;;;;;;;;4977133;28;20038;-80
2022/01/19 16:31:06;;;;;;;11.20;6.00;;;;;;;;;;4981304;28;20092;-80